AFR842 LFPG-TFFF
Flight info
| Callsign | AFR842 |
|---|---|
| Flight time | N/A |
| Altitude | 30000 |
| Route | LGL UN491 UPALO UN585 FEJAC DCT REGHI/M082F300 DCT ETIKI DCT 47N015W 46N020W 41N030W 36N040W 32N045W 27N050W DCT DRDGE/N0493F300 DCT UMAMU UMAMU2D |
| Aircraft | B77W/H-SDE2E3FGHIJ3J5M1P2RWXYZ/LB1D1 |
Departure
| Time | 2026-05-08 07:54 |
|---|---|
| Airport | Charles de Gaulle International Airport (LFPG) |
Arrival
| Time | N/A |
|---|---|
| Airport | Martinique Aimé Césaire International Airport (TFFF) |
| Time | Latitude | Longitude | Altitude | Speed | Heading |
|---|---|---|---|---|---|
| 2026-05-08 07:14 | 49.00666 | 2.58351 | 358 ft | 0 kts | 85° |
| 2026-05-08 07:43 | 49.00666 | 2.58339 | 366 ft | 4 kts | 94° |
| 2026-05-08 07:44 | 49.00670 | 2.58305 | 364 ft | 2 kts | 86° |
| 2026-05-08 07:44 | 49.00667 | 2.58270 | 367 ft | 4 kts | 63° |
| 2026-05-08 07:44 | 49.00651 | 2.58248 | 367 ft | 4 kts | 0° |
| 2026-05-08 07:44 | 49.00626 | 2.58250 | 366 ft | 4 kts | 356° |
| 2026-05-08 07:45 | 49.00615 | 2.58251 | 366 ft | 1 kts | 356° |
| 2026-05-08 07:47 | 49.00635 | 2.58248 | 366 ft | 6 kts | 354° |
| 2026-05-08 07:47 | 49.00669 | 2.58243 | 367 ft | 10 kts | 354° |
| 2026-05-08 07:47 | 49.00752 | 2.58234 | 358 ft | 12 kts | 1° |
| 2026-05-08 07:47 | 49.00836 | 2.58253 | 363 ft | 12 kts | 11° |
| 2026-05-08 07:48 | 49.00904 | 2.58199 | 367 ft | 12 kts | 289° |
| 2026-05-08 07:48 | 49.00900 | 2.57993 | 360 ft | 28 kts | 265° |
| 2026-05-08 07:48 | 49.00885 | 2.57699 | 360 ft | 28 kts | 266° |
| 2026-05-08 07:48 | 49.00873 | 2.57441 | 364 ft | 20 kts | 265° |
| 2026-05-08 07:49 | 49.00860 | 2.57217 | 361 ft | 26 kts | 265° |
| 2026-05-08 07:49 | 49.00845 | 2.56935 | 362 ft | 27 kts | 265° |
| 2026-05-08 07:49 | 49.00830 | 2.56652 | 360 ft | 27 kts | 265° |
| 2026-05-08 07:49 | 49.00810 | 2.56373 | 366 ft | 27 kts | 262° |
| 2026-05-08 07:50 | 49.00783 | 2.56093 | 364 ft | 27 kts | 261° |
| 2026-05-08 07:50 | 49.00756 | 2.55812 | 360 ft | 27 kts | 262° |
| 2026-05-08 07:50 | 49.00732 | 2.55531 | 365 ft | 27 kts | 262° |
| 2026-05-08 07:50 | 49.00676 | 2.55269 | 361 ft | 26 kts | 214° |
| 2026-05-08 07:51 | 49.00535 | 2.55292 | 366 ft | 22 kts | 164° |
| 2026-05-08 07:51 | 49.00387 | 2.55356 | 364 ft | 22 kts | 164° |
| 2026-05-08 07:51 | 49.00239 | 2.55420 | 365 ft | 22 kts | 164° |
| 2026-05-08 07:51 | 49.00091 | 2.55484 | 364 ft | 22 kts | 164° |
| 2026-05-08 07:52 | 48.99943 | 2.55549 | 365 ft | 22 kts | 162° |
| 2026-05-08 07:52 | 48.99849 | 2.55690 | 365 ft | 17 kts | 114° |
| 2026-05-08 07:52 | 48.99770 | 2.55803 | 367 ft | 17 kts | 171° |
| 2026-05-08 07:52 | 48.99657 | 2.55812 | 363 ft | 13 kts | 183° |
| 2026-05-08 07:53 | 48.99612 | 2.55841 | 359 ft | 6 kts | 119° |
| 2026-05-08 07:53 | 48.99606 | 2.55902 | 361 ft | 6 kts | 89° |
| 2026-05-08 07:53 | 48.99617 | 2.56132 | 363 ft | 47 kts | 85° |
| 2026-05-08 07:53 | 48.99663 | 2.57001 | 361 ft | 115 kts | 85° |
| 2026-05-08 07:54 | 48.99743 | 2.58513 | 361 ft | 169 kts | 86° |
| 2026-05-08 07:54 | 48.99825 | 2.60364 | 746 ft | 176 kts | 85° |
| 2026-05-08 07:54 | 48.99923 | 2.62228 | 1349 ft | 177 kts | 85° |
| 2026-05-08 07:54 | 49.00026 | 2.64089 | 1963 ft | 177 kts | 85° |
| 2026-05-08 07:55 | 49.00139 | 2.66004 | 2394 ft | 189 kts | 85° |
| 2026-05-08 07:55 | 49.00256 | 2.68084 | 2725 ft | 206 kts | 86° |
| 2026-05-08 07:55 | 49.00364 | 2.70362 | 3033 ft | 228 kts | 86° |
| 2026-05-08 07:55 | 49.00484 | 2.72889 | 3379 ft | 245 kts | 85° |
| 2026-05-08 07:56 | 49.00614 | 2.75504 | 4106 ft | 252 kts | 85° |
| 2026-05-08 07:56 | 49.00742 | 2.78220 | 4636 ft | 262 kts | 90° |
| 2026-05-08 07:56 | 49.00517 | 2.80995 | 5246 ft | 267 kts | 101° |
| 2026-05-08 07:56 | 49.00161 | 2.83788 | 5958 ft | 270 kts | 100° |
| 2026-05-08 07:57 | 48.99832 | 2.86623 | 6658 ft | 274 kts | 99° |
| 2026-05-08 07:57 | 48.99521 | 2.89465 | 7298 ft | 278 kts | 99° |
| 2026-05-08 07:57 | 48.99201 | 2.92434 | 7944 ft | 283 kts | 99° |
| 2026-05-08 07:57 | 48.98890 | 2.95372 | 8590 ft | 287 kts | 99° |
| 2026-05-08 07:58 | 48.98327 | 2.98261 | 9105 ft | 289 kts | 123° |
| 2026-05-08 07:58 | 48.96892 | 3.00373 | 9654 ft | 290 kts | 154° |
| 2026-05-08 07:58 | 48.94977 | 3.01213 | 10291 ft | 289 kts | 179° |
| 2026-05-08 07:58 | 48.92962 | 3.00790 | 10596 ft | 303 kts | 202° |
| 2026-05-08 07:59 | 48.91119 | 2.99077 | 10771 ft | 323 kts | 225° |
| 2026-05-08 07:59 | 48.89707 | 2.96318 | 10950 ft | 344 kts | 242° |
| 2026-05-08 07:59 | 48.88839 | 2.92844 | 11328 ft | 359 kts | 255° |
| 2026-05-08 07:59 | 48.88262 | 2.89108 | 11959 ft | 367 kts | 257° |
| 2026-05-08 08:00 | 48.87749 | 2.85384 | 12786 ft | 372 kts | 257° |
| 2026-05-08 08:00 | 48.87199 | 2.81517 | 13690 ft | 375 kts | 256° |
| 2026-05-08 08:00 | 48.86611 | 2.77632 | 14485 ft | 380 kts | 255° |
| 2026-05-08 08:00 | 48.85984 | 2.73706 | 15254 ft | 384 kts | 255° |
| 2026-05-08 08:01 | 48.85328 | 2.69746 | 16009 ft | 389 kts | 255° |
| 2026-05-08 08:01 | 48.84649 | 2.65750 | 16769 ft | 393 kts | 254° |
| 2026-05-08 08:01 | 48.83957 | 2.61715 | 17531 ft | 397 kts | 254° |
| 2026-05-08 08:01 | 48.83253 | 2.57636 | 18282 ft | 402 kts | 254° |
| 2026-05-08 08:02 | 48.82540 | 2.53508 | 18943 ft | 406 kts | 254° |
| 2026-05-08 08:02 | 48.81823 | 2.49357 | 19623 ft | 409 kts | 254° |
| 2026-05-08 08:02 | 48.81100 | 2.45171 | 20321 ft | 411 kts | 254° |
| 2026-05-08 08:02 | 48.80371 | 2.40962 | 20986 ft | 414 kts | 255° |
| 2026-05-08 08:03 | 48.79912 | 2.36627 | 21579 ft | 419 kts | 266° |
| 2026-05-08 08:03 | 48.79891 | 2.32186 | 22153 ft | 424 kts | 269° |
| 2026-05-08 08:03 | 48.79953 | 2.27706 | 22773 ft | 428 kts | 270° |
| 2026-05-08 08:03 | 48.80025 | 2.23164 | 23407 ft | 431 kts | 270° |
| 2026-05-08 08:04 | 48.80075 | 2.19346 | 23877 ft | 433 kts | 270° |
| 2026-05-08 08:04 | 48.80117 | 2.14756 | 24392 ft | 436 kts | 269° |
| 2026-05-08 08:04 | 48.80140 | 2.10151 | 24909 ft | 439 kts | 269° |
| 2026-05-08 08:04 | 48.80150 | 2.05513 | 25410 ft | 441 kts | 269° |
| 2026-05-08 08:05 | 48.80150 | 2.00853 | 25909 ft | 443 kts | 269° |
| 2026-05-08 08:05 | 48.80145 | 1.96165 | 26394 ft | 446 kts | 269° |
| 2026-05-08 08:05 | 48.80138 | 1.91442 | 26863 ft | 449 kts | 269° |
| 2026-05-08 08:05 | 48.80128 | 1.86694 | 27322 ft | 451 kts | 269° |
| 2026-05-08 08:06 | 48.80116 | 1.81919 | 27760 ft | 454 kts | 269° |
| 2026-05-08 08:06 | 48.80104 | 1.77122 | 28186 ft | 456 kts | 269° |
| 2026-05-08 08:06 | 48.80090 | 1.72295 | 28590 ft | 459 kts | 269° |
| 2026-05-08 08:06 | 48.80074 | 1.67446 | 28982 ft | 461 kts | 268° |
| 2026-05-08 08:07 | 48.80056 | 1.62567 | 29362 ft | 463 kts | 268° |
| 2026-05-08 08:07 | 48.80035 | 1.57743 | 29764 ft | 464 kts | 268° |
| 2026-05-08 08:07 | 48.80011 | 1.52867 | 30263 ft | 462 kts | 268° |
| 2026-05-08 08:07 | 48.79986 | 1.47942 | 30749 ft | 459 kts | 268° |
| 2026-05-08 08:08 | 48.79961 | 1.43119 | 31203 ft | 457 kts | 269° |
| 2026-05-08 08:08 | 48.79935 | 1.38366 | 31619 ft | 455 kts | 269° |
| 2026-05-08 08:08 | 48.79905 | 1.33512 | 32023 ft | 454 kts | 269° |
| 2026-05-08 08:08 | 48.79872 | 1.28796 | 32418 ft | 453 kts | 269° |
| 2026-05-08 08:09 | 48.79836 | 1.24035 | 32828 ft | 451 kts | 269° |
| 2026-05-08 08:09 | 48.79801 | 1.19291 | 33216 ft | 449 kts | 269° |
| 2026-05-08 08:09 | 48.79763 | 1.14567 | 33594 ft | 448 kts | 269° |
| 2026-05-08 08:09 | 48.79725 | 1.09782 | 33962 ft | 447 kts | 269° |
| 2026-05-08 08:10 | 48.79686 | 1.05118 | 34028 ft | 450 kts | 270° |
| 2026-05-08 08:10 | 48.79597 | 0.95634 | 34048 ft | 448 kts | 270° |
| 2026-05-08 08:11 | 48.79500 | 0.86257 | 34056 ft | 442 kts | 270° |
| 2026-05-08 08:11 | 48.79398 | 0.76939 | 34058 ft | 441 kts | 270° |
| 2026-05-08 08:12 | 48.79288 | 0.67631 | 34061 ft | 441 kts | 270° |
| 2026-05-08 08:12 | 48.79172 | 0.58324 | 34047 ft | 442 kts | 270° |
| 2026-05-08 08:13 | 48.79181 | 0.49024 | 34051 ft | 441 kts | 275° |
| 2026-05-08 08:13 | 48.79793 | 0.39771 | 34044 ft | 441 kts | 277° |
| 2026-05-08 08:14 | 48.80477 | 0.30522 | 34044 ft | 441 kts | 277° |
| 2026-05-08 08:14 | 48.81081 | 0.21265 | 34042 ft | 440 kts | 276° |
| 2026-05-08 08:15 | 48.81642 | 0.12025 | 34036 ft | 440 kts | 276° |
| 2026-05-08 08:15 | 48.82188 | 0.02792 | 34039 ft | 439 kts | 276° |
| 2026-05-08 08:16 | 48.82729 | -0.06401 | 34039 ft | 437 kts | 277° |
| 2026-05-08 08:16 | 48.83262 | -0.15593 | 34040 ft | 436 kts | 277° |
| 2026-05-08 08:17 | 48.83787 | -0.24732 | 34037 ft | 435 kts | 277° |
| 2026-05-08 08:17 | 48.84288 | -0.33881 | 34038 ft | 434 kts | 277° |
| 2026-05-08 08:18 | 48.84769 | -0.43006 | 34038 ft | 433 kts | 277° |
| 2026-05-08 08:18 | 48.85240 | -0.52093 | 34041 ft | 432 kts | 277° |
| 2026-05-08 08:19 | 48.85703 | -0.61112 | 34034 ft | 431 kts | 277° |
| 2026-05-08 08:19 | 48.86166 | -0.70180 | 34027 ft | 430 kts | 277° |
| 2026-05-08 08:20 | 48.86618 | -0.79233 | 34044 ft | 430 kts | 277° |
| 2026-05-08 08:20 | 48.87064 | -0.88297 | 34039 ft | 430 kts | 277° |
| 2026-05-08 08:21 | 48.87502 | -0.97364 | 34033 ft | 430 kts | 277° |
| 2026-05-08 08:21 | 48.87933 | -1.06422 | 34021 ft | 430 kts | 277° |
| 2026-05-08 08:22 | 48.88217 | -1.12496 | 34027 ft | 430 kts | 277° |